sensor_id;sensor_type;location;lat;lon;timestamp;P1;durP1;ratioP1;P2;durP2;ratioP2
57615;SDS011;43816;52.054;-9.494;2023-02-28T00:00:08;3.80;;;3.33;;
57615;SDS011;43816;52.054;-9.494;2023-02-28T00:00:20;3.63;;;3.33;;
57615;SDS011;43816;52.054;-9.494;2023-02-28T00:00:31;3.63;;;3.33;;
57615;SDS011;43816;52.054;-9.494;2023-02-28T00:00:42;3.60;;;3.30;;
57615;SDS011;43816;52.054;-9.494;2023-02-28T00:00:53;3.63;;;3.33;;
57615;SDS011;43816;52.054;-9.494;2023-02-28T00:01:03;3.70;;;3.40;;
57615;SDS011;43816;52.054;-9.494;2023-02-28T00:01:13;3.90;;;3.60;;
57615;SDS011;43816;52.054;-9.494;2023-02-28T00:01:25;4.00;;;3.70;;
57615;SDS011;43816;52.054;-9.494;2023-02-28T00:01:35;4.00;;;3.70;;
57615;SDS011;43816;52.054;-9.494;2023-02-28T00:01:45;3.80;;;3.50;;
57615;SDS011;43816;52.054;-9.494;2023-02-28T00:01:56;3.50;;;3.30;;
57615;SDS011;43816;52.054;-9.494;2023-02-28T00:02:06;3.60;;;3.30;;
57615;SDS011;43816;52.054;-9.494;2023-02-28T00:02:16;3.70;;;3.40;;
57615;SDS011;43816;52.054;-9.494;2023-02-28T00:02:26;3.73;;;3.43;;
57615;SDS011;43816;52.054;-9.494;2023-02-28T00:02:37;3.78;;;3.47;;
57615;SDS011;43816;52.054;-9.494;2023-02-28T00:02:49;3.65;;;3.35;;
57615;SDS011;43816;52.054;-9.494;2023-02-28T00:02:59;3.60;;;3.30;;
57615;SDS011;43816;52.054;-9.494;2023-02-28T00:03:10;3.40;;;3.20;;
57615;SDS011;43816;52.054;-9.494;2023-02-28T00:03:20;3.57;;;3.30;;
57615;SDS011;43816;52.054;-9.494;2023-02-28T00:03:30;3.70;;;3.40;;
57615;SDS011;43816;52.054;-9.494;2023-02-28T00:03:41;3.70;;;3.40;;
57615;SDS011;43816;52.054;-9.494;2023-02-28T00:03:51;3.80;;;3.50;;
57615;SDS011;43816;52.054;-9.494;2023-02-28T00:04:01;3.90;;;3.60;;
57615;SDS011;43816;52.054;-9.494;2023-02-28T00:04:11;3.97;;;3.67;;
57615;SDS011;43816;52.054;-9.494;2023-02-28T00:04:22;4.00;;;3.70;;
57615;SDS011;43816;52.054;-9.494;2023-02-28T00:04:32;3.73;;;3.43;;
57615;SDS011;43816;52.054;-9.494;2023-02-28T00:04:42;3.40;;;3.20;;
57615;SDS011;43816;52.054;-9.494;2023-02-28T00:04:53;3.23;;;3.03;;
57615;SDS011;43816;52.054;-9.494;2023-02-28T00:05:03;3.20;;;3.00;;
57615;SDS011;43816;52.054;-9.494;2023-02-28T00:05:16;3.47;;;3.20;;
57615;SDS011;43816;52.054;-9.494;2023-02-28T00:05:28;3.45;;;3.15;;
57615;SDS011;43816;52.054;-9.494;2023-02-28T00:05:39;3.35;;;3.10;;
57615;SDS011;43816;52.054;-9.494;2023-02-28T00:05:49;3.40;;;3.17;;
57615;SDS011;43816;52.054;-9.494;2023-02-28T00:05:59;3.38;;;3.17;;
57615;SDS011;43816;52.054;-9.494;2023-02-28T00:06:10;3.70;;;3.40;;
57615;SDS011;43816;52.054;-9.494;2023-02-28T00:06:20;3.73;;;3.43;;
57615;SDS011;43816;52.054;-9.494;2023-02-28T00:06:30;3.85;;;3.55;;
57615;SDS011;43816;52.054;-9.494;2023-02-28T00:06:41;3.50;;;3.20;;
57615;SDS011;43816;52.054;-9.494;2023-02-28T00:06:51;3.40;;;3.10;;
57615;SDS011;43816;52.054;-9.494;2023-02-28T00:07:01;3.30;;;3.00;;
57615;SDS011;43816;52.054;-9.494;2023-02-28T00:07:11;3.50;;;3.20;;
57615;SDS011;43816;52.054;-9.494;2023-02-28T00:07:22;3.60;;;3.30;;
57615;SDS011;43816;52.054;-9.494;2023-02-28T00:07:32;3.65;;;3.35;;
57615;SDS011;43816;52.054;-9.494;2023-02-28T00:07:42;3.60;;;3.30;;
57615;SDS011;43816;52.054;-9.494;2023-02-28T00:07:53;3.50;;;3.20;;
57615;SDS011;43816;52.054;-9.494;2023-02-28T00:08:03;3.42;;;3.20;;
57615;SDS011;43816;52.054;-9.494;2023-02-28T00:08:14;3.30;;;3.00;;
57615;SDS011;43816;52.054;-9.494;2023-02-28T00:08:24;3.63;;;3.20;;
57615;SDS011;43816;52.054;-9.494;2023-02-28T00:08:35;4.20;;;3.40;;
57615;SDS011;43816;52.054;-9.494;2023-02-28T00:08:46;3.85;;;3.45;;
57615;SDS011;43816;52.054;-9.494;2023-02-28T00:08:56;3.50;;;3.20;;
57615;SDS011;43816;52.054;-9.494;2023-02-28T00:09:07;3.40;;;3.10;;
57615;SDS011;43816;52.054;-9.494;2023-02-28T00:09:17;3.27;;;2.97;;
57615;SDS011;43816;52.054;-9.494;2023-02-28T00:09:27;3.07;;;2.87;;
57615;SDS011;43816;52.054;-9.494;2023-02-28T00:09:38;3.20;;;3.00;;
57615;SDS011;43816;52.054;-9.494;2023-02-28T00:09:48;3.23;;;3.03;;
57615;SDS011;43816;52.054;-9.494;2023-02-28T00:09:58;3.50;;;3.20;;
57615;SDS011;43816;52.054;-9.494;2023-02-28T00:10:10;3.50;;;3.20;;
57615;SDS011;43816;52.054;-9.494;2023-02-28T00:10:23;3.50;;;3.20;;
57615;SDS011;43816;52.054;-9.494;2023-02-28T00:10:36;3.22;;;2.92;;
57615;SDS011;43816;52.054;-9.494;2023-02-28T00:10:46;3.27;;;2.97;;
57615;SDS011;43816;52.054;-9.494;2023-02-28T00:10:59;3.40;;;3.10;;
57615;SDS011;43816;52.054;-9.494;2023-02-28T00:11:12;3.50;;;3.20;;
57615;SDS011;43816;52.054;-9.494;2023-02-28T00:11:23;3.45;;;3.17;;
57615;SDS011;43816;52.054;-9.494;2023-02-28T00:11:34;3.30;;;3.10;;
57615;SDS011;43816;52.054;-9.494;2023-02-28T00:11:44;3.30;;;3.10;;
57615;SDS011;43816;52.054;-9.494;2023-02-28T00:11:54;3.33;;;3.10;;
57615;SDS011;43816;52.054;-9.494;2023-02-28T00:12:05;3.20;;;3.00;;
57615;SDS011;43816;52.054;-9.494;2023-02-28T00:12:15;3.10;;;2.90;;
57615;SDS011;43816;52.054;-9.494;2023-02-28T00:12:26;3.10;;;2.90;;
57615;SDS011;43816;52.054;-9.494;2023-02-28T00:12:37;3.20;;;2.90;;
57615;SDS011;43816;52.054;-9.494;2023-02-28T00:12:48;3.10;;;2.90;;
57615;SDS011;43816;52.054;-9.494;2023-02-28T00:12:59;3.10;;;2.90;;
57615;SDS011;43816;52.054;-9.494;2023-02-28T00:13:12;3.20;;;3.00;;
57615;SDS011;43816;52.054;-9.494;2023-02-28T00:13:22;3.27;;;3.07;;
57615;SDS011;43816;52.054;-9.494;2023-02-28T00:13:33;3.30;;;3.10;;
57615;SDS011;43816;52.054;-9.494;2023-02-28T00:13:47;3.30;;;3.00;;
57615;SDS011;43816;52.054;-9.494;2023-02-28T00:13:57;3.40;;;3.10;;
57615;SDS011;43816;52.054;-9.494;2023-02-28T00:14:08;3.20;;;3.00;;
57615;SDS011;43816;52.054;-9.494;2023-02-28T00:14:18;3.13;;;2.92;;
57615;SDS011;43816;52.054;-9.494;2023-02-28T00:14:29;2.90;;;2.70;;
57615;SDS011;43816;52.054;-9.494;2023-02-28T00:14:40;3.00;;;2.80;;
57615;SDS011;43816;52.054;-9.494;2023-02-28T00:14:50;3.10;;;2.90;;
57615;SDS011;43816;52.054;-9.494;2023-02-28T00:15:01;3.40;;;3.20;;
57615;SDS011;43816;52.054;-9.494;2023-02-28T00:15:15;3.33;;;3.13;;
57615;SDS011;43816;52.054;-9.494;2023-02-28T00:15:25;3.30;;;3.10;;
57615;SDS011;43816;52.054;-9.494;2023-02-28T00:15:36;3.17;;;2.90;;
57615;SDS011;43816;52.054;-9.494;2023-02-28T00:15:46;3.20;;;2.90;;
57615;SDS011;43816;52.054;-9.494;2023-02-28T00:16:00;3.20;;;2.90;;
57615;SDS011;43816;52.054;-9.494;2023-02-28T00:16:13;3.40;;;3.10;;
57615;SDS011;43816;52.054;-9.494;2023-02-28T00:16:25;3.40;;;3.10;;
57615;SDS011;43816;52.054;-9.494;2023-02-28T00:16:35;3.33;;;3.03;;
57615;SDS011;43816;52.054;-9.494;2023-02-28T00:16:45;3.20;;;2.90;;
57615;SDS011;43816;52.054;-9.494;2023-02-28T00:16:56;3.00;;;2.80;;
57615;SDS011;43816;52.054;-9.494;2023-02-28T00:17:06;3.00;;;2.80;;
57615;SDS011;43816;52.054;-9.494;2023-02-28T00:17:16;3.10;;;2.90;;
57615;SDS011;43816;52.054;-9.494;2023-02-28T00:17:27;3.13;;;2.90;;
57615;SDS011;43816;52.054;-9.494;2023-02-28T00:17:37;3.13;;;2.87;;
57615;SDS011;43816;52.054;-9.494;2023-02-28T00:17:47;3.10;;;2.80;;
57615;SDS011;43816;52.054;-9.494;2023-02-28T00:17:58;3.17;;;2.87;;
57615;SDS011;43816;52.054;-9.494;2023-02-28T00:18:08;3.17;;;2.90;;
57615;SDS011;43816;52.054;-9.494;2023-02-28T00:18:18;3.07;;;2.87;;
57615;SDS011;43816;52.054;-9.494;2023-02-28T00:18:28;2.93;;;2.73;;
57615;SDS011;43816;52.054;-9.494;2023-02-28T00:18:39;2.92;;;2.72;;
57615;SDS011;43816;52.054;-9.494;2023-02-28T00:18:49;2.90;;;2.70;;
57615;SDS011;43816;52.054;-9.494;2023-02-28T00:19:00;3.08;;;2.88;;
57615;SDS011;43816;52.054;-9.494;2023-02-28T00:19:10;3.07;;;2.87;;
57615;SDS011;43816;52.054;-9.494;2023-02-28T00:19:20;3.00;;;2.80;;
57615;SDS011;43816;52.054;-9.494;2023-02-28T00:19:31;2.97;;;2.78;;
57615;SDS011;43816;52.054;-9.494;2023-02-28T00:19:41;2.90;;;2.70;;
57615;SDS011;43816;52.054;-9.494;2023-02-28T00:19:51;3.10;;;2.90;;
57615;SDS011;43816;52.054;-9.494;2023-02-28T00:20:03;3.10;;;2.90;;
57615;SDS011;43816;52.054;-9.494;2023-02-28T00:20:14;3.20;;;3.00;;
57615;SDS011;43816;52.054;-9.494;2023-02-28T00:20:25;3.20;;;3.00;;
57615;SDS011;43816;52.054;-9.494;2023-02-28T00:20:35;3.03;;;2.83;;
57615;SDS011;43816;52.054;-9.494;2023-02-28T00:20:45;2.97;;;2.77;;
57615;SDS011;43816;52.054;-9.494;2023-02-28T00:20:56;2.93;;;2.73;;
57615;SDS011;43816;52.054;-9.494;2023-02-28T00:21:07;2.90;;;2.70;;
57615;SDS011;43816;52.054;-9.494;2023-02-28T00:21:18;3.00;;;2.80;;
57615;SDS011;43816;52.054;-9.494;2023-02-28T00:21:29;3.10;;;2.90;;
57615;SDS011;43816;52.054;-9.494;2023-02-28T00:21:39;3.10;;;2.90;;
57615;SDS011;43816;52.054;-9.494;2023-02-28T00:21:50;3.30;;;3.00;;
57615;SDS011;43816;52.054;-9.494;2023-02-28T00:22:00;3.30;;;3.00;;
57615;SDS011;43816;52.054;-9.494;2023-02-28T00:22:10;3.30;;;3.00;;
57615;SDS011;43816;52.054;-9.494;2023-02-28T00:22:21;3.00;;;2.80;;
57615;SDS011;43816;52.054;-9.494;2023-02-28T00:22:31;2.90;;;2.70;;
57615;SDS011;43816;52.054;-9.494;2023-02-28T00:22:43;2.90;;;2.70;;
57615;SDS011;43816;52.054;-9.494;2023-02-28T00:22:55;2.90;;;2.70;;
57615;SDS011;43816;52.054;-9.494;2023-02-28T00:23:06;2.90;;;2.70;;
57615;SDS011;43816;52.054;-9.494;2023-02-28T00:23:16;3.05;;;2.85;;
57615;SDS011;43816;52.054;-9.494;2023-02-28T00:23:26;2.90;;;2.70;;
57615;SDS011;43816;52.054;-9.494;2023-02-28T00:23:37;2.90;;;2.70;;
57615;SDS011;43816;52.054;-9.494;2023-02-28T00:23:48;2.90;;;2.70;;
57615;SDS011;43816;52.054;-9.494;2023-02-28T00:23:58;2.97;;;2.70;;
57615;SDS011;43816;52.054;-9.494;2023-02-28T00:24:08;2.93;;;2.73;;
57615;SDS011;43816;52.054;-9.494;2023-02-28T00:24:19;2.90;;;2.70;;
57615;SDS011;43816;52.054;-9.494;2023-02-28T00:24:29;2.97;;;2.77;;
57615;SDS011;43816;52.054;-9.494;2023-02-28T00:24:39;3.10;;;2.80;;
57615;SDS011;43816;52.054;-9.494;2023-02-28T00:24:49;3.03;;;2.80;;
57615;SDS011;43816;52.054;-9.494;2023-02-28T00:25:00;2.85;;;2.60;;
57615;SDS011;43816;52.054;-9.494;2023-02-28T00:25:11;2.80;;;2.60;;
57615;SDS011;43816;52.054;-9.494;2023-02-28T00:25:23;2.80;;;2.60;;
57615;SDS011;43816;52.054;-9.494;2023-02-28T00:25:35;2.88;;;2.67;;
57615;SDS011;43816;52.054;-9.494;2023-02-28T00:25:45;2.90;;;2.70;;
57615;SDS011;43816;52.054;-9.494;2023-02-28T00:25:55;2.93;;;2.73;;
57615;SDS011;43816;52.054;-9.494;2023-02-28T00:26:05;2.95;;;2.75;;
57615;SDS011;43816;52.054;-9.494;2023-02-28T00:26:16;2.80;;;2.60;;
57615;SDS011;43816;52.054;-9.494;2023-02-28T00:26:26;2.70;;;2.50;;
57615;SDS011;43816;52.054;-9.494;2023-02-28T00:26:36;2.70;;;2.50;;
57615;SDS011;43816;52.054;-9.494;2023-02-28T00:26:47;2.80;;;2.57;;
57615;SDS011;43816;52.054;-9.494;2023-02-28T00:26:57;2.90;;;2.70;;
57615;SDS011;43816;52.054;-9.494;2023-02-28T00:27:07;2.80;;;2.60;;
57615;SDS011;43816;52.054;-9.494;2023-02-28T00:27:18;2.77;;;2.57;;
57615;SDS011;43816;52.054;-9.494;2023-02-28T00:27:28;2.80;;;2.60;;
57615;SDS011;43816;52.054;-9.494;2023-02-28T00:27:39;2.80;;;2.60;;
57615;SDS011;43816;52.054;-9.494;2023-02-28T00:27:50;2.88;;;2.67;;
57615;SDS011;43816;52.054;-9.494;2023-02-28T00:28:01;2.90;;;2.70;;
57615;SDS011;43816;52.054;-9.494;2023-02-28T00:28:11;2.90;;;2.70;;
57615;SDS011;43816;52.054;-9.494;2023-02-28T00:28:21;2.90;;;2.70;;
57615;SDS011;43816;52.054;-9.494;2023-02-28T00:28:32;2.90;;;2.70;;
57615;SDS011;43816;52.054;-9.494;2023-02-28T00:28:42;2.90;;;2.70;;
57615;SDS011;43816;52.054;-9.494;2023-02-28T00:28:52;3.00;;;2.80;;
57615;SDS011;43816;52.054;-9.494;2023-02-28T00:29:03;2.80;;;2.60;;
57615;SDS011;43816;52.054;-9.494;2023-02-28T00:29:13;2.73;;;2.53;;
57615;SDS011;43816;52.054;-9.494;2023-02-28T00:29:23;2.60;;;2.40;;
57615;SDS011;43816;52.054;-9.494;2023-02-28T00:29:34;2.80;;;2.60;;
57615;SDS011;43816;52.054;-9.494;2023-02-28T00:29:45;2.80;;;2.60;;
57615;SDS011;43816;52.054;-9.494;2023-02-28T00:29:56;2.85;;;2.65;;
57615;SDS011;43816;52.054;-9.494;2023-02-28T00:30:07;2.87;;;2.67;;
57615;SDS011;43816;52.054;-9.494;2023-02-28T00:30:22;2.90;;;2.70;;
57615;SDS011;43816;52.054;-9.494;2023-02-28T00:30:33;2.78;;;2.58;;
57615;SDS011;43816;52.054;-9.494;2023-02-28T00:30:43;2.70;;;2.50;;
57615;SDS011;43816;52.054;-9.494;2023-02-28T00:30:54;2.70;;;2.50;;
57615;SDS011;43816;52.054;-9.494;2023-02-28T00:31:04;2.80;;;2.60;;
57615;SDS011;43816;52.054;-9.494;2023-02-28T00:31:15;2.80;;;2.60;;
57615;SDS011;43816;52.054;-9.494;2023-02-28T00:31:25;2.73;;;2.53;;
57615;SDS011;43816;52.054;-9.494;2023-02-28T00:31:35;2.47;;;2.38;;
57615;SDS011;43816;52.054;-9.494;2023-02-28T00:31:45;2.57;;;2.47;;
57615;SDS011;43816;52.054;-9.494;2023-02-28T00:31:56;2.80;;;2.60;;
57615;SDS011;43816;52.054;-9.494;2023-02-28T00:32:06;2.90;;;2.70;;
57615;SDS011;43816;52.054;-9.494;2023-02-28T00:32:16;3.00;;;2.80;;
57615;SDS011;43816;52.054;-9.494;2023-02-28T00:32:27;2.90;;;2.70;;
57615;SDS011;43816;52.054;-9.494;2023-02-28T00:32:37;2.90;;;2.70;;
57615;SDS011;43816;52.054;-9.494;2023-02-28T00:32:48;2.80;;;2.60;;
57615;SDS011;43816;52.054;-9.494;2023-02-28T00:32:59;2.80;;;2.60;;
57615;SDS011;43816;52.054;-9.494;2023-02-28T00:33:09;2.95;;;2.67;;
57615;SDS011;43816;52.054;-9.494;2023-02-28T00:33:19;2.90;;;2.60;;
57615;SDS011;43816;52.054;-9.494;2023-02-28T00:33:30;2.70;;;2.47;;
57615;SDS011;43816;52.054;-9.494;2023-02-28T00:33:40;2.60;;;2.40;;
57615;SDS011;43816;52.054;-9.494;2023-02-28T00:33:50;2.73;;;2.53;;
57615;SDS011;43816;52.054;-9.494;2023-02-28T00:34:01;2.80;;;2.60;;
57615;SDS011;43816;52.054;-9.494;2023-02-28T00:34:11;3.00;;;2.80;;
57615;SDS011;43816;52.054;-9.494;2023-02-28T00:34:21;3.00;;;2.80;;
57615;SDS011;43816;52.054;-9.494;2023-02-28T00:34:31;3.07;;;2.87;;
57615;SDS011;43816;52.054;-9.494;2023-02-28T00:34:42;2.80;;;2.60;;
57615;SDS011;43816;52.054;-9.494;2023-02-28T00:34:52;2.70;;;2.50;;
57615;SDS011;43816;52.054;-9.494;2023-02-28T00:35:03;2.67;;;2.47;;
57615;SDS011;43816;52.054;-9.494;2023-02-28T00:35:14;2.58;;;2.38;;
57615;SDS011;43816;52.054;-9.494;2023-02-28T00:35:25;2.55;;;2.35;;
57615;SDS011;43816;52.054;-9.494;2023-02-28T00:35:35;2.53;;;2.33;;
57615;SDS011;43816;52.054;-9.494;2023-02-28T00:35:45;2.70;;;2.50;;
57615;SDS011;43816;52.054;-9.494;2023-02-28T00:36:03;2.80;;;2.60;;
57615;SDS011;43816;52.054;-9.494;2023-02-28T00:36:18;2.72;;;2.53;;
57615;SDS011;43816;52.054;-9.494;2023-02-28T00:36:28;2.70;;;2.50;;
57615;SDS011;43816;52.054;-9.494;2023-02-28T00:36:39;2.60;;;2.40;;
57615;SDS011;43816;52.054;-9.494;2023-02-28T00:36:49;2.70;;;2.50;;
57615;SDS011;43816;52.054;-9.494;2023-02-28T00:36:59;2.65;;;2.45;;
57615;SDS011;43816;52.054;-9.494;2023-02-28T00:37:09;2.70;;;2.50;;
57615;SDS011;43816;52.054;-9.494;2023-02-28T00:37:21;2.70;;;2.50;;
57615;SDS011;43816;52.054;-9.494;2023-02-28T00:37:31;2.60;;;2.40;;
57615;SDS011;43816;52.054;-9.494;2023-02-28T00:37:42;2.50;;;2.30;;
57615;SDS011;43816;52.054;-9.494;2023-02-28T00:37:52;2.50;;;2.30;;
57615;SDS011;43816;52.054;-9.494;2023-02-28T00:38:02;2.57;;;2.37;;
57615;SDS011;43816;52.054;-9.494;2023-02-28T00:38:13;2.60;;;2.40;;
57615;SDS011;43816;52.054;-9.494;2023-02-28T00:38:24;2.67;;;2.47;;
57615;SDS011;43816;52.054;-9.494;2023-02-28T00:38:35;2.77;;;2.57;;
57615;SDS011;43816;52.054;-9.494;2023-02-28T00:38:46;2.72;;;2.53;;
57615;SDS011;43816;52.054;-9.494;2023-02-28T00:38:56;2.60;;;2.47;;
57615;SDS011;43816;52.054;-9.494;2023-02-28T00:39:06;2.63;;;2.43;;
57615;SDS011;43816;52.054;-9.494;2023-02-28T00:39:17;2.63;;;2.43;;
57615;SDS011;43816;52.054;-9.494;2023-02-28T00:39:27;2.80;;;2.60;;
57615;SDS011;43816;52.054;-9.494;2023-02-28T00:39:38;2.83;;;2.63;;
57615;SDS011;43816;52.054;-9.494;2023-02-28T00:39:48;2.78;;;2.58;;
57615;SDS011;43816;52.054;-9.494;2023-02-28T00:39:59;2.65;;;2.45;;
57615;SDS011;43816;52.054;-9.494;2023-02-28T00:40:09;2.60;;;2.40;;
57615;SDS011;43816;52.054;-9.494;2023-02-28T00:40:20;2.60;;;2.40;;
57615;SDS011;43816;52.054;-9.494;2023-02-28T00:40:30;2.40;;;2.30;;
57615;SDS011;43816;52.054;-9.494;2023-02-28T00:40:41;2.47;;;2.37;;
57615;SDS011;43816;52.054;-9.494;2023-02-28T00:40:51;2.50;;;2.40;;
57615;SDS011;43816;52.054;-9.494;2023-02-28T00:41:02;2.80;;;2.60;;
57615;SDS011;43816;52.054;-9.494;2023-02-28T00:41:12;2.70;;;2.50;;
57615;SDS011;43816;52.054;-9.494;2023-02-28T00:41:22;2.58;;;2.38;;
57615;SDS011;43816;52.054;-9.494;2023-02-28T00:41:33;2.43;;;2.27;;
57615;SDS011;43816;52.054;-9.494;2023-02-28T00:41:43;2.50;;;2.30;;
57615;SDS011;43816;52.054;-9.494;2023-02-28T00:41:53;2.63;;;2.42;;
57615;SDS011;43816;52.054;-9.494;2023-02-28T00:42:04;2.80;;;2.60;;
57615;SDS011;43816;52.054;-9.494;2023-02-28T00:42:15;2.75;;;2.55;;
57615;SDS011;43816;52.054;-9.494;2023-02-28T00:42:25;2.80;;;2.60;;
57615;SDS011;43816;52.054;-9.494;2023-02-28T00:42:37;2.70;;;2.50;;
57615;SDS011;43816;52.054;-9.494;2023-02-28T00:42:48;2.45;;;2.25;;
57615;SDS011;43816;52.054;-9.494;2023-02-28T00:42:58;2.55;;;2.35;;
57615;SDS011;43816;52.054;-9.494;2023-02-28T00:43:09;2.60;;;2.40;;
57615;SDS011;43816;52.054;-9.494;2023-02-28T00:43:19;2.73;;;2.53;;
57615;SDS011;43816;52.054;-9.494;2023-02-28T00:43:30;2.60;;;2.40;;
57615;SDS011;43816;52.054;-9.494;2023-02-28T00:43:41;2.78;;;2.58;;
57615;SDS011;43816;52.054;-9.494;2023-02-28T00:43:52;2.80;;;2.60;;
57615;SDS011;43816;52.054;-9.494;2023-02-28T00:44:02;2.67;;;2.53;;
57615;SDS011;43816;52.054;-9.494;2023-02-28T00:44:12;2.57;;;2.40;;
57615;SDS011;43816;52.054;-9.494;2023-02-28T00:44:23;2.70;;;2.50;;
57615;SDS011;43816;52.054;-9.494;2023-02-28T00:44:33;2.70;;;2.50;;
57615;SDS011;43816;52.054;-9.494;2023-02-28T00:44:44;3.00;;;2.70;;
57615;SDS011;43816;52.054;-9.494;2023-02-28T00:44:54;2.88;;;2.60;;
57615;SDS011;43816;52.054;-9.494;2023-02-28T00:45:04;2.80;;;2.60;;
57615;SDS011;43816;52.054;-9.494;2023-02-28T00:45:15;2.60;;;2.40;;
57615;SDS011;43816;52.054;-9.494;2023-02-28T00:45:25;2.60;;;2.40;;
57615;SDS011;43816;52.054;-9.494;2023-02-28T00:45:36;2.60;;;2.40;;
57615;SDS011;43816;52.054;-9.494;2023-02-28T00:45:46;2.70;;;2.50;;
57615;SDS011;43816;52.054;-9.494;2023-02-28T00:45:56;2.70;;;2.50;;
57615;SDS011;43816;52.054;-9.494;2023-02-28T00:46:07;2.60;;;2.40;;
57615;SDS011;43816;52.054;-9.494;2023-02-28T00:46:17;2.60;;;2.40;;
57615;SDS011;43816;52.054;-9.494;2023-02-28T00:46:28;2.63;;;2.43;;
57615;SDS011;43816;52.054;-9.494;2023-02-28T00:46:38;2.70;;;2.50;;
57615;SDS011;43816;52.054;-9.494;2023-02-28T00:46:48;2.60;;;2.40;;
57615;SDS011;43816;52.054;-9.494;2023-02-28T00:46:59;2.50;;;2.33;;
57615;SDS011;43816;52.054;-9.494;2023-02-28T00:47:10;2.50;;;2.33;;
57615;SDS011;43816;52.054;-9.494;2023-02-28T00:47:20;2.50;;;2.30;;
57615;SDS011;43816;52.054;-9.494;2023-02-28T00:47:31;2.55;;;2.35;;
57615;SDS011;43816;52.054;-9.494;2023-02-28T00:47:41;2.53;;;2.40;;
57615;SDS011;43816;52.054;-9.494;2023-02-28T00:47:52;2.37;;;2.27;;
57615;SDS011;43816;52.054;-9.494;2023-02-28T00:48:02;2.22;;;2.13;;
57615;SDS011;43816;52.054;-9.494;2023-02-28T00:48:12;2.20;;;2.10;;
57615;SDS011;43816;52.054;-9.494;2023-02-28T00:48:23;2.60;;;2.40;;
57615;SDS011;43816;52.054;-9.494;2023-02-28T00:48:33;2.67;;;2.47;;
57615;SDS011;43816;52.054;-9.494;2023-02-28T00:48:43;2.60;;;2.40;;
57615;SDS011;43816;52.054;-9.494;2023-02-28T00:48:54;2.40;;;2.20;;
57615;SDS011;43816;52.054;-9.494;2023-02-28T00:49:04;2.33;;;2.13;;
57615;SDS011;43816;52.054;-9.494;2023-02-28T00:49:14;2.33;;;2.17;;
57615;SDS011;43816;52.054;-9.494;2023-02-28T00:49:25;2.20;;;2.10;;
57615;SDS011;43816;52.054;-9.494;2023-02-28T00:49:36;2.22;;;2.13;;
57615;SDS011;43816;52.054;-9.494;2023-02-28T00:49:46;2.27;;;2.17;;
57615;SDS011;43816;52.054;-9.494;2023-02-28T00:49:56;2.30;;;2.20;;
57615;SDS011;43816;52.054;-9.494;2023-02-28T00:50:07;2.33;;;2.22;;
57615;SDS011;43816;52.054;-9.494;2023-02-28T00:50:18;2.35;;;2.20;;
57615;SDS011;43816;52.054;-9.494;2023-02-28T00:50:29;2.53;;;2.30;;
57615;SDS011;43816;52.054;-9.494;2023-02-28T00:50:39;2.67;;;2.30;;
57615;SDS011;43816;52.054;-9.494;2023-02-28T00:50:50;2.73;;;2.40;;
57615;SDS011;43816;52.054;-9.494;2023-02-28T00:51:00;2.60;;;2.40;;
57615;SDS011;43816;52.054;-9.494;2023-02-28T00:51:11;2.63;;;2.42;;
57615;SDS011;43816;52.054;-9.494;2023-02-28T00:51:21;2.58;;;2.40;;
57615;SDS011;43816;52.054;-9.494;2023-02-28T00:51:32;2.50;;;2.30;;
57615;SDS011;43816;52.054;-9.494;2023-02-28T00:51:42;2.40;;;2.20;;
57615;SDS011;43816;52.054;-9.494;2023-02-28T00:51:53;2.47;;;2.28;;
57615;SDS011;43816;52.054;-9.494;2023-02-28T00:52:04;2.50;;;2.30;;
57615;SDS011;43816;52.054;-9.494;2023-02-28T00:52:15;2.50;;;2.30;;
57615;SDS011;43816;52.054;-9.494;2023-02-28T00:52:25;2.50;;;2.30;;
57615;SDS011;43816;52.054;-9.494;2023-02-28T00:52:35;2.40;;;2.30;;
57615;SDS011;43816;52.054;-9.494;2023-02-28T00:52:46;2.50;;;2.40;;
57615;SDS011;43816;52.054;-9.494;2023-02-28T00:52:57;2.50;;;2.40;;
57615;SDS011;43816;52.054;-9.494;2023-02-28T00:53:07;2.57;;;2.40;;
57615;SDS011;43816;52.054;-9.494;2023-02-28T00:53:17;2.40;;;2.20;;
57615;SDS011;43816;52.054;-9.494;2023-02-28T00:53:27;2.50;;;2.30;;
57615;SDS011;43816;52.054;-9.494;2023-02-28T00:53:38;2.40;;;2.20;;
57615;SDS011;43816;52.054;-9.494;2023-02-28T00:53:48;2.47;;;2.28;;
57615;SDS011;43816;52.054;-9.494;2023-02-28T00:53:58;2.33;;;2.13;;
57615;SDS011;43816;52.054;-9.494;2023-02-28T00:54:09;2.30;;;2.10;;
57615;SDS011;43816;52.054;-9.494;2023-02-28T00:54:19;2.33;;;2.13;;
57615;SDS011;43816;52.054;-9.494;2023-02-28T00:54:30;2.25;;;2.15;;
57615;SDS011;43816;52.054;-9.494;2023-02-28T00:54:40;2.13;;;2.03;;
57615;SDS011;43816;52.054;-9.494;2023-02-28T00:54:51;2.13;;;2.00;;
57615;SDS011;43816;52.054;-9.494;2023-02-28T00:55:01;2.20;;;2.00;;
57615;SDS011;43816;52.054;-9.494;2023-02-28T00:55:11;2.30;;;2.10;;
57615;SDS011;43816;52.054;-9.494;2023-02-28T00:55:22;2.20;;;2.10;;
57615;SDS011;43816;52.054;-9.494;2023-02-28T00:55:32;2.10;;;2.00;;
57615;SDS011;43816;52.054;-9.494;2023-02-28T00:55:42;2.10;;;2.00;;
57615;SDS011;43816;52.054;-9.494;2023-02-28T00:55:53;2.17;;;2.08;;
57615;SDS011;43816;52.054;-9.494;2023-02-28T00:56:03;2.20;;;2.10;;
57615;SDS011;43816;52.054;-9.494;2023-02-28T00:56:14;2.30;;;2.10;;
57615;SDS011;43816;52.054;-9.494;2023-02-28T00:56:24;2.00;;;1.90;;
57615;SDS011;43816;52.054;-9.494;2023-02-28T00:56:34;2.10;;;2.00;;
57615;SDS011;43816;52.054;-9.494;2023-02-28T00:56:45;2.20;;;2.07;;
57615;SDS011;43816;52.054;-9.494;2023-02-28T00:56:55;2.43;;;2.20;;
57615;SDS011;43816;52.054;-9.494;2023-02-28T00:57:05;2.87;;;2.27;;
57615;SDS011;43816;52.054;-9.494;2023-02-28T00:57:15;2.80;;;2.40;;
57615;SDS011;43816;52.054;-9.494;2023-02-28T00:57:26;2.60;;;2.37;;
57615;SDS011;43816;52.054;-9.494;2023-02-28T00:57:36;2.53;;;2.33;;
57615;SDS011;43816;52.054;-9.494;2023-02-28T00:57:46;2.53;;;2.33;;
57615;SDS011;43816;52.054;-9.494;2023-02-28T00:57:57;2.50;;;2.30;;
57615;SDS011;43816;52.054;-9.494;2023-02-28T00:58:07;2.57;;;2.37;;
57615;SDS011;43816;52.054;-9.494;2023-02-28T00:58:17;2.45;;;2.25;;
57615;SDS011;43816;52.054;-9.494;2023-02-28T00:58:28;2.30;;;2.10;;
57615;SDS011;43816;52.054;-9.494;2023-02-28T00:58:38;2.10;;;2.00;;
57615;SDS011;43816;52.054;-9.494;2023-02-28T00:58:48;2.15;;;2.03;;
57615;SDS011;43816;52.054;-9.494;2023-02-28T00:58:58;2.40;;;2.20;;
57615;SDS011;43816;52.054;-9.494;2023-02-28T00:59:09;2.50;;;2.30;;
57615;SDS011;43816;52.054;-9.494;2023-02-28T00:59:19;2.42;;;2.22;;
57615;SDS011;43816;52.054;-9.494;2023-02-28T00:59:29;2.40;;;2.20;;
57615;SDS011;43816;52.054;-9.494;2023-02-28T00:59:40;2.40;;;2.20;;
57615;SDS011;43816;52.054;-9.494;2023-02-28T00:59:50;2.40;;;2.20;;
57615;SDS011;43816;52.054;-9.494;2023-02-28T01:00:00;2.33;;;2.13;;
57615;SDS011;43816;52.054;-9.494;2023-02-28T01:00:11;2.30;;;2.10;;
57615;SDS011;43816;52.054;-9.494;2023-02-28T01:00:21;2.30;;;2.10;;
57615;SDS011;43816;52.054;-9.494;2023-02-28T01:00:32;2.53;;;2.33;;
57615;SDS011;43816;52.054;-9.494;2023-02-28T01:00:42;2.60;;;2.40;;
57615;SDS011;43816;52.054;-9.494;2023-02-28T01:00:52;2.60;;;2.40;;
57615;SDS011;43816;52.054;-9.494;2023-02-28T01:01:03;2.47;;;2.30;;
57615;SDS011;43816;52.054;-9.494;2023-02-28T01:01:13;2.47;;;2.30;;
57615;SDS011;43816;52.054;-9.494;2023-02-28T01:01:24;2.60;;;2.40;;
57615;SDS011;43816;52.054;-9.494;2023-02-28T01:01:34;2.60;;;2.40;;
57615;SDS011;43816;52.054;-9.494;2023-02-28T01:01:45;2.50;;;2.30;;
57615;SDS011;43816;52.054;-9.494;2023-02-28T01:01:55;2.28;;;2.17;;
57615;SDS011;43816;52.054;-9.494;2023-02-28T01:02:06;2.20;;;2.10;;
57615;SDS011;43816;52.054;-9.494;2023-02-28T01:02:16;2.20;;;2.10;;
57615;SDS011;43816;52.054;-9.494;2023-02-28T01:02:26;2.10;;;2.00;;
57615;SDS011;43816;52.054;-9.494;2023-02-28T01:02:37;2.10;;;2.00;;
57615;SDS011;43816;52.054;-9.494;2023-02-28T01:02:47;2.10;;;2.00;;
57615;SDS011;43816;52.054;-9.494;2023-02-28T01:02:57;2.10;;;2.00;;